Vestborg — E5U2070 — position and weather

sailwx.info

Track history (hours):
 
Tides and Currents Weather Stations Pressure Air Temp Water Temp Dewpoint Dewpoint Depression Visibility Wind Speed Wind Dir Waves Ship Positions

Vestborg

Last reported at 2014-Sep-23 12:32 UTC. Time now 2014-Sep-23 22:22 UTC.
Position N 67°05' E 014°18'.

Length 66 m; draft 5.2 m.

Type: Cargo ship. MMSI: 518120000.

Date/timePositionNaut miles runAvg speedWind from/ knotsBaromVisibWave heightAir tempDewpointWater temp
2014-Sep-23 12:32N 67°05' E 014°18'6 6.2
2014-Sep-23 11:33N 67°11' E 014°19'7 6.6
2014-Sep-23 10:33N 67°09' E 014°02'12 8.2
2014-Sep-23 09:06N 67°01' E 013°41'6 8.5
2014-Sep-23 08:27N 66°57' E 013°30'30 7.8
2014-Sep-23 04:33N 66°29' E 012°59'8 8.3
2014-Sep-23 03:33N 66°21' E 012°58'3 0.1
2014-Sep-22 05:07N 66°19' E 012°56'5 8.6
2014-Sep-22 04:33N 66°23' E 012°58'39 7.7
2014-Sep-21 23:30N 66°59' E 013°36'9 8.0
2014-Sep-21 22:26N 67°04' E 013°54'7 7.9
2014-Sep-21 21:33N 67°10' E 014°03'8 8.1
2014-Sep-21 20:33N 67°17' E 014°14'8 8.0
2014-Sep-21 19:33N 67°24' E 014°26'8 8.1
2014-Sep-21 18:33N 67°32' E 014°30'  
Track history (hours):
 
Tides and Currents Weather Stations Pressure Air Temp Water Temp Dewpoint Dewpoint Depression Visibility Wind Speed Wind Dir Waves Ship Positions

Vestborg

Last reported at 2014-Sep-23 12:32 UTC. Time now 2014-Sep-23 22:22 UTC.
Position N 67°05' E 014°18'.

Length 66 m; draft 5.2 m.

Type: Cargo ship. MMSI: 518120000.

Date/timePositionNaut miles runAvg speedWind from/ knotsBaromVisibWave heightAir tempDewpointWater temp
2014-Sep-23 12:32N 67°05' E 014°18'6 6.2
2014-Sep-23 11:33N 67°11' E 014°19'7 6.6
2014-Sep-23 10:33N 67°09' E 014°02'12 8.2
2014-Sep-23 09:06N 67°01' E 013°41'6 8.5
2014-Sep-23 08:27N 66°57' E 013°30'30 7.8
2014-Sep-23 04:33N 66°29' E 012°59'8 8.3
2014-Sep-23 03:33N 66°21' E 012°58'3 0.1
2014-Sep-22 05:07N 66°19' E 012°56'5 8.6
2014-Sep-22 04:33N 66°23' E 012°58'39 7.7
2014-Sep-21 23:30N 66°59' E 013°36'9 8.0
2014-Sep-21 22:26N 67°04' E 013°54'7 7.9
2014-Sep-21 21:33N 67°10' E 014°03'8 8.1
2014-Sep-21 20:33N 67°17' E 014°14'8 8.0
2014-Sep-21 19:33N 67°24' E 014°26'8 8.1
2014-Sep-21 18:33N 67°32' E 014°30'  

Dump ship's entire track history